Time;durP1;ratioP1;P1;durP2;ratioP2;P2;SDS_P1;SDS_P2;PMS_P1;PMS_P2;Temp;Humidity;BMP_temperature;BMP_pressure;BME280_temperature;BME280_humidity;BME280_pressure;Samples;Min_cycle;Max_cycle;Signal;HPM_P1;HPM_P2
2022/11/18 00:00:24;;;;;;;1.10;0.82;;;;;;;;;;4990996;28;20027;-81
2022/11/18 00:05:42;;;;;;;2.30;0.88;;;;;;;;;;4969155;28;20074;-80
2022/11/18 00:08:17;;;;;;;0.82;0.75;;;;;;;;;;4978178;28;20023;-81
2022/11/18 00:10:46;;;;;;;1.33;0.60;;;;;;;;;;4975899;28;20037;-80
2022/11/18 00:16:17;;;;;;;1.20;0.60;;;;;;;;;;4958811;29;20094;-81
2022/11/18 00:18:46;;;;;;;1.30;0.70;;;;;;;;;;4958372;29;20031;-79
2022/11/18 00:21:21;;;;;;;1.15;0.75;;;;;;;;;;4975965;29;20058;-80
2022/11/18 00:24:05;;;;;;;1.20;0.77;;;;;;;;;;4959852;28;20527;-81
2022/11/18 00:26:37;;;;;;;2.22;1.77;;;;;;;;;;4963629;28;20027;-79
2022/11/18 00:29:40;;;;;;;;;;;;;;;;;;;;;
2022/11/18 00:32:15;;;;;;;1.73;1.63;;;;;;;;;;4964726;28;20054;-79
2022/11/18 00:34:49;;;;;;;2.13;1.20;;;;;;;;;;4960623;29;20047;-79
2022/11/18 00:37:29;;;;;;;1.67;1.20;;;;;;;;;;4959027;29;20168;-80
2022/11/18 00:40:03;;;;;;;2.10;0.90;;;;;;;;;;4962770;29;20031;-80
2022/11/18 00:42:50;;;;;;;2.97;0.90;;;;;;;;;;4979433;28;20070;-80
2022/11/18 00:48:21;;;;;;;;;;;;;;;;;;;;;
2022/11/18 00:51:08;;;;;;;1.75;0.50;;;;;;;;;;4959602;28;20030;-80
2022/11/18 00:53:50;;;;;;;0.60;0.38;;;;;;;;;;4936912;29;20039;-81
2022/11/18 00:56:23;;;;;;;2.15;0.50;;;;;;;;;;4940398;29;20042;-79
2022/11/18 00:58:52;;;;;;;0.30;0.30;;;;;;;;;;4957866;28;20033;-80
2022/11/18 01:01:47;;;;;;;0.50;0.40;;;;;;;;;;4957487;28;20106;-80
2022/11/18 01:04:38;;;;;;;0.47;0.47;;;;;;;;;;4952038;29;20406;-80
2022/11/18 01:07:15;;;;;;;1.83;0.40;;;;;;;;;;4957932;28;20027;-80
2022/11/18 01:09:56;;;;;;;0.90;0.60;;;;;;;;;;4966534;28;20038;-81
2022/11/18 01:15:19;;;;;;;0.30;0.30;;;;;;;;;;4984708;28;20066;-80
2022/11/18 01:18:15;;;;;;;0.50;0.50;;;;;;;;;;4996102;28;20031;-80
2022/11/18 01:20:59;;;;;;;;;;;;;;;;;;;;;
2022/11/18 01:23:45;;;;;;;0.32;0.32;;;;;;;;;;4987890;28;20103;-81
2022/11/18 01:26:26;;;;;;;0.40;0.30;;;;;;;;;;4979702;28;20027;-80
2022/11/18 01:29:11;;;;;;;0.65;0.60;;;;;;;;;;4998618;28;20099;-82
2022/11/18 01:31:52;;;;;;;0.20;0.20;;;;;;;;;;4996224;28;20022;-80
2022/11/18 01:34:19;;;;;;;0.35;0.35;;;;;;;;;;4980588;28;20847;-82
2022/11/18 01:36:56;;;;;;;0.85;0.43;;;;;;;;;;4997240;28;20030;-81
2022/11/18 01:39:30;;;;;;;0.40;0.35;;;;;;;;;;4997145;28;20042;-81
2022/11/18 01:42:18;;;;;;;0.85;0.50;;;;;;;;;;4994656;28;20047;-82
2022/11/18 01:45:13;;;;;;;0.50;0.50;;;;;;;;;;4996962;28;20023;-82
2022/11/18 01:47:54;;;;;;;0.85;0.55;;;;;;;;;;4992789;28;20054;-80
2022/11/18 01:50:26;;;;;;;0.50;0.40;;;;;;;;;;4972518;28;20427;-81
2022/11/18 01:53:04;;;;;;;2.28;0.63;;;;;;;;;;4958551;28;20027;-81
2022/11/18 01:58:39;;;;;;;0.57;0.55;;;;;;;;;;4979661;28;20035;-80
2022/11/18 02:01:27;;;;;;;0.52;0.40;;;;;;;;;;4966956;28;20038;-80
2022/11/18 02:04:01;;;;;;;3.33;0.47;;;;;;;;;;4985094;28;20023;-78
2022/11/18 02:06:48;;;;;;;0.70;0.68;;;;;;;;;;4991066;28;20007;-79
2022/11/18 02:09:17;;;;;;;1.95;0.60;;;;;;;;;;4995749;28;20026;-80
2022/11/18 02:11:49;;;;;;;1.02;0.50;;;;;;;;;;4958083;28;20489;-80
2022/11/18 02:17:30;;;;;;;0.70;0.60;;;;;;;;;;4955443;29;20027;-80
2022/11/18 02:20:11;;;;;;;0.63;0.60;;;;;;;;;;4938432;29;20378;-80
2022/11/18 02:23:00;;;;;;;0.80;0.52;;;;;;;;;;4955626;28;20024;-79
2022/11/18 02:25:45;;;;;;;0.82;0.45;;;;;;;;;;4954678;28;20035;-80
2022/11/18 02:28:31;;;;;;;1.70;0.60;;;;;;;;;;4955099;29;20122;-80
2022/11/18 02:31:49;;;;;;;0.82;0.63;;;;;;;;;;4956281;29;20040;-80
2022/11/18 02:34:43;;;;;;;0.60;0.60;;;;;;;;;;4952660;29;20162;-80
2022/11/18 02:37:29;;;;;;;0.70;0.60;;;;;;;;;;4955313;29;20523;-81
2022/11/18 02:43:24;;;;;;;;;;;;;;;;;;4977387;28;20059;-81
2022/11/18 02:45:58;;;;;;;1.50;0.73;;;;;;;;;;4955824;29;19917;-79
2022/11/18 02:48:36;;;;;;;0.40;0.40;;;;;;;;;;4944592;29;20046;-79
2022/11/18 02:51:14;;;;;;;1.05;0.52;;;;;;;;;;4959176;29;20105;-81
2022/11/18 02:54:02;;;;;;;0.52;0.52;;;;;;;;;;4938725;29;20036;-81
2022/11/18 02:56:29;;;;;;;1.30;0.73;;;;;;;;;;4954814;29;20030;-81
2022/11/18 03:02:04;;;;;;;0.95;0.70;;;;;;;;;;4956076;29;20034;-79
2022/11/18 03:07:52;;;;;;;1.20;0.60;;;;;;;;;;4953735;29;20274;-81
2022/11/18 03:11:17;;;;;;;2.10;0.70;;;;;;;;;;4963206;28;20039;-80
2022/11/18 03:13:46;;;;;;;1.30;0.80;;;;;;;;;;4968046;28;20019;-79
2022/11/18 03:16:28;;;;;;;1.40;0.50;;;;;;;;;;4974741;28;20034;-81
2022/11/18 03:19:04;;;;;;;;;;;;;;;;;;;;;
2022/11/18 03:21:43;;;;;;;0.90;0.60;;;;;;;;;;4974824;28;20290;-79
2022/11/18 03:24:20;;;;;;;0.30;0.30;;;;;;;;;;4975149;28;20026;-80
2022/11/18 03:26:50;;;;;;;0.55;0.32;;;;;;;;;;4974254;28;20094;-80
2022/11/18 03:29:29;;;;;;;0.80;0.30;;;;;;;;;;4957937;28;20029;-81
2022/11/18 03:32:02;;;;;;;2.00;0.40;;;;;;;;;;4975207;28;20039;-80
2022/11/18 03:34:32;;;;;;;0.17;0.10;;;;;;;;;;4975098;28;20114;-80
2022/11/18 03:37:00;;;;;;;1.73;0.30;;;;;;;;;;4957677;28;20316;-80
2022/11/18 03:39:28;;;;;;;0.40;0.30;;;;;;;;;;4957510;28;20026;-80
2022/11/18 03:41:56;;;;;;;0.22;0.10;;;;;;;;;;4971818;28;20354;-80
2022/11/18 03:44:24;;;;;;;0.55;0.30;;;;;;;;;;4956999;29;20376;-81
2022/11/18 03:47:00;;;;;;;0.30;0.30;;;;;;;;;;4939092;29;20028;-81
2022/11/18 03:49:30;;;;;;;1.70;0.30;;;;;;;;;;4939832;29;20436;-81
2022/11/18 03:52:07;;;;;;;2.25;0.32;;;;;;;;;;4939949;29;20027;-81
2022/11/18 03:54:35;;;;;;;0.30;0.20;;;;;;;;;;4939574;29;20098;-81
2022/11/18 03:57:08;;;;;;;0.90;0.20;;;;;;;;;;4956905;29;20409;-81
2022/11/18 03:59:40;;;;;;;0.30;0.30;;;;;;;;;;4957607;28;20094;-81
2022/11/18 04:02:09;;;;;;;3.45;0.40;;;;;;;;;;4943433;29;20385;-81
2022/11/18 04:04:35;;;;;;;0.20;0.20;;;;;;;;;;4960493;29;20031;-80
2022/11/18 04:07:07;;;;;;;0.22;0.10;;;;;;;;;;4960012;29;20059;-81
2022/11/18 04:09:41;;;;;;;1.25;0.20;;;;;;;;;;4964082;28;20027;-79
2022/11/18 04:12:09;;;;;;;2.65;0.20;;;;;;;;;;4968866;28;20090;-80
2022/11/18 04:14:40;;;;;;;0.20;0.20;;;;;;;;;;4984785;28;20046;-81
2022/11/18 04:17:10;;;;;;;0.10;0.10;;;;;;;;;;4966529;28;20031;-80
2022/11/18 04:19:36;;;;;;;0.10;0.10;;;;;;;;;;4979312;28;20082;-80
2022/11/18 04:22:03;;;;;;;0.20;0.10;;;;;;;;;;4970165;28;20083;-79
2022/11/18 04:24:29;;;;;;;0.25;0.10;;;;;;;;;;4987351;28;20023;-80
2022/11/18 04:27:27;;;;;;;1.35;0.20;;;;;;;;;;5005906;23;20070;-80
2022/11/18 04:30:25;;;;;;;0.45;0.10;;;;;;;;;;4990519;28;20136;-80
2022/11/18 04:36:05;;;;;;;2.05;0.10;;;;;;;;;;4997332;28;20072;-80
2022/11/18 04:38:34;;;;;;;0.63;0.10;;;;;;;;;;4997396;28;20411;-82
2022/11/18 04:41:00;;;;;;;0.88;0.13;;;;;;;;;;4998395;28;20024;-80
2022/11/18 04:43:29;;;;;;;0.45;0.10;;;;;;;;;;4981021;28;20439;-82
2022/11/18 04:48:41;;;;;;;0.20;0.20;;;;;;;;;;5012726;28;20102;-81
2022/11/18 04:51:07;;;;;;;0.13;0.13;;;;;;;;;;5015693;28;20495;-80
2022/11/18 04:53:33;;;;;;;0.32;0.20;;;;;;;;;;5013980;28;20034;-81
2022/11/18 04:56:06;;;;;;;0.32;0.30;;;;;;;;;;5011610;28;20154;-80
2022/11/18 04:58:35;;;;;;;0.90;0.30;;;;;;;;;;4997728;28;20035;-82
2022/11/18 05:01:01;;;;;;;1.35;0.30;;;;;;;;;;4997119;28;20018;-82
2022/11/18 05:03:27;;;;;;;0.50;0.20;;;;;;;;;;4996245;28;20030;-82
2022/11/18 07:24:39;;;;;;;2.10;0.50;;;;;;;;;;4788038;23;20051;-82
2022/11/18 07:27:12;;;;;;;0.47;0.30;;;;;;;;;;5216730;23;20054;-83
2022/11/18 09:15:59;;;;;;;0.60;0.50;;;;;;;;;;4935331;28;19934;-83
2022/11/18 09:18:25;;;;;;;3.70;0.88;;;;;;;;;;4894607;28;20120;-80
2022/11/18 09:20:58;;;;;;;2.25;0.70;;;;;;;;;;4999666;28;20027;-79
2022/11/18 09:23:24;;;;;;;0.77;0.60;;;;;;;;;;4986412;28;20022;-81
2022/11/18 09:25:57;;;;;;;2.13;0.60;;;;;;;;;;4998947;28;20445;-80
2022/11/18 09:28:23;;;;;;;2.72;0.80;;;;;;;;;;4984724;28;20030;-81
2022/11/18 09:30:49;;;;;;;1.23;0.60;;;;;;;;;;4992941;28;20029;-81
2022/11/18 09:33:15;;;;;;;0.30;0.30;;;;;;;;;;5001875;28;20054;-82
2022/11/18 09:35:45;;;;;;;0.70;0.52;;;;;;;;;;4987256;28;20050;-82
2022/11/18 09:38:11;;;;;;;1.17;0.65;;;;;;;;;;5006311;28;20026;-80
2022/11/18 09:40:56;;;;;;;3.72;0.52;;;;;;;;;;5004650;28;20029;-82
2022/11/18 09:43:36;;;;;;;0.50;0.43;;;;;;;;;;4984642;28;20026;-80
2022/11/18 09:46:08;;;;;;;0.50;0.30;;;;;;;;;;4969672;28;20026;-79
2022/11/18 09:51:20;;;;;;;0.98;0.47;;;;;;;;;;4998809;28;20041;-80
2022/11/18 09:53:46;;;;;;;0.30;0.30;;;;;;;;;;4988532;28;20092;-80
2022/11/18 09:56:14;;;;;;;1.00;0.20;;;;;;;;;;5010872;28;20026;-80
2022/11/18 09:58:40;;;;;;;1.67;0.60;;;;;;;;;;5013622;28;20050;-81
2022/11/18 10:01:12;;;;;;;0.63;0.50;;;;;;;;;;5012848;28;20070;-81
2022/11/18 10:03:39;;;;;;;0.63;0.30;;;;;;;;;;4996394;28;20018;-81
2022/11/18 10:06:09;;;;;;;0.47;0.28;;;;;;;;;;5013315;28;20018;-81
2022/11/18 10:08:38;;;;;;;0.28;0.25;;;;;;;;;;4991247;28;20033;-82
2022/11/18 10:11:26;;;;;;;1.05;0.28;;;;;;;;;;4986813;28;20329;-82
2022/11/18 10:13:52;;;;;;;0.30;0.30;;;;;;;;;;5007148;28;20038;-81
2022/11/18 10:16:32;;;;;;;1.60;0.50;;;;;;;;;;5010453;28;20026;-81
2022/11/18 10:19:17;;;;;;;0.10;0.10;;;;;;;;;;4994823;28;20112;-82
2022/11/18 10:22:02;;;;;;;0.17;0.17;;;;;;;;;;5013984;28;20015;-83
2022/11/18 10:24:49;;;;;;;0.90;0.20;;;;;;;;;;4994127;28;20037;-82
2022/11/18 10:27:16;;;;;;;0.90;0.30;;;;;;;;;;4987902;28;20037;-82
2022/11/18 10:29:43;;;;;;;4.65;0.80;;;;;;;;;;4983313;28;20101;-84
2022/11/18 10:32:19;;;;;;;0.45;0.38;;;;;;;;;;4994483;28;20027;-81
2022/11/18 10:34:46;;;;;;;0.40;0.30;;;;;;;;;;5001985;28;20076;-82
2022/11/18 10:37:25;;;;;;;1.17;0.40;;;;;;;;;;4983207;28;20141;-80
2022/11/18 10:39:52;;;;;;;0.63;0.20;;;;;;;;;;4983199;28;20049;-82
2022/11/18 10:42:24;;;;;;;0.60;0.30;;;;;;;;;;5001619;28;20415;-82
2022/11/18 10:44:50;;;;;;;1.95;0.57;;;;;;;;;;4981431;28;20036;-81
2022/11/18 10:47:22;;;;;;;1.40;0.52;;;;;;;;;;4994054;28;20034;-81
2022/11/18 10:49:49;;;;;;;0.22;0.22;;;;;;;;;;5006919;28;20050;-81
2022/11/18 10:52:15;;;;;;;0.70;0.38;;;;;;;;;;5000089;28;20026;-81
2022/11/18 10:54:41;;;;;;;1.20;0.45;;;;;;;;;;4998993;28;20212;-81
2022/11/18 10:57:13;;;;;;;0.45;0.45;;;;;;;;;;4978789;28;20061;-80
2022/11/18 10:59:41;;;;;;;0.65;0.30;;;;;;;;;;4996295;28;20030;-80
2022/11/18 11:02:16;;;;;;;0.82;0.30;;;;;;;;;;4995722;28;20053;-80
2022/11/18 11:04:43;;;;;;;0.80;0.60;;;;;;;;;;4994332;28;20365;-80
2022/11/18 11:07:24;;;;;;;0.85;0.35;;;;;;;;;;4977003;28;20069;-81
2022/11/18 11:10:00;;;;;;;2.03;0.40;;;;;;;;;;4982131;28;20034;-82
2022/11/18 11:12:28;;;;;;;0.90;0.60;;;;;;;;;;4989844;28;20134;-81
2022/11/18 11:14:56;;;;;;;0.95;0.80;;;;;;;;;;5002058;28;20079;-82
2022/11/18 11:17:35;;;;;;;0.73;0.57;;;;;;;;;;5002755;28;20038;-82
2022/11/18 11:20:06;;;;;;;1.08;0.75;;;;;;;;;;4984750;28;20094;-82
2022/11/18 11:22:32;;;;;;;0.57;0.50;;;;;;;;;;5003184;28;20080;-81
2022/11/18 11:24:58;;;;;;;0.57;0.50;;;;;;;;;;5003209;28;20030;-82
2022/11/18 11:27:27;;;;;;;1.27;0.93;;;;;;;;;;4985711;28;20026;-82
2022/11/18 11:29:59;;;;;;;2.13;0.60;;;;;;;;;;4965664;28;20476;-81
2022/11/18 11:32:32;;;;;;;1.88;0.93;;;;;;;;;;4991598;28;20026;-81
2022/11/18 11:35:19;;;;;;;2.38;0.95;;;;;;;;;;5017865;23;20368;-83
2022/11/18 11:37:53;;;;;;;2.92;0.82;;;;;;;;;;4985521;28;20034;-82
2022/11/18 11:40:25;;;;;;;1.02;0.60;;;;;;;;;;4987569;28;20033;-82
2022/11/18 11:43:09;;;;;;;1.85;0.63;;;;;;;;;;4984293;28;20045;-82
2022/11/18 11:45:38;;;;;;;4.97;0.80;;;;;;;;;;4974070;28;20122;-83
2022/11/18 11:48:30;;;;;;;1.60;1.23;;;;;;;;;;4986830;28;20081;-81
2022/11/18 11:51:02;;;;;;;2.25;0.98;;;;;;;;;;4986780;28;20010;-83
2022/11/18 11:53:46;;;;;;;3.50;1.15;;;;;;;;;;4986593;28;20026;-81
2022/11/18 11:56:17;;;;;;;1.23;0.63;;;;;;;;;;4982455;28;20391;-84
2022/11/18 11:58:58;;;;;;;1.95;0.70;;;;;;;;;;4987006;28;20050;-82
2022/11/18 12:01:34;;;;;;;2.47;0.75;;;;;;;;;;4992556;28;20108;-81
2022/11/18 12:04:03;;;;;;;1.50;0.50;;;;;;;;;;5005337;28;20061;-83
2022/11/18 12:06:29;;;;;;;0.47;0.28;;;;;;;;;;4992240;28;20046;-81
2022/11/18 12:09:15;;;;;;;3.38;0.43;;;;;;;;;;4977332;28;20038;-81
2022/11/18 12:11:52;;;;;;;4.88;0.50;;;;;;;;;;4984039;28;20085;-83
2022/11/18 12:14:24;;;;;;;0.20;0.20;;;;;;;;;;5003947;28;20090;-83
2022/11/18 12:16:55;;;;;;;1.30;0.60;;;;;;;;;;4999354;28;20050;-82
2022/11/18 12:19:22;;;;;;;0.43;0.40;;;;;;;;;;4992794;28;20105;-83
2022/11/18 12:21:52;;;;;;;0.65;0.40;;;;;;;;;;4988918;28;20034;-82
2022/11/18 12:24:29;;;;;;;1.80;1.20;;;;;;;;;;4985495;28;20045;-82
2022/11/18 12:26:56;;;;;;;6.70;4.47;;;;;;;;;;4984995;28;20081;-82
2022/11/18 12:29:24;;;;;;;17.08;10.02;;;;;;;;;;4970742;28;20019;-81
2022/11/18 12:32:03;;;;;;;21.23;11.80;;;;;;;;;;4983108;28;20030;-82
2022/11/18 12:34:31;;;;;;;35.67;17.90;;;;;;;;;;4986848;28;20023;-81
2022/11/18 12:37:17;;;;;;;13.27;7.30;;;;;;;;;;4981083;28;20033;-82
2022/11/18 12:39:43;;;;;;;29.60;20.33;;;;;;;;;;4997190;28;20038;-82
2022/11/18 12:45:33;;;;;;;11.10;8.43;;;;;;;;;;4985673;28;20082;-82
2022/11/18 12:47:59;;;;;;;46.80;25.38;;;;;;;;;;4991627;28;20022;-82
2022/11/18 12:50:45;;;;;;;36.30;19.67;;;;;;;;;;4998725;28;20025;-81
2022/11/18 12:53:26;;;;;;;14.27;12.85;;;;;;;;;;5004941;28;20054;-82
2022/11/18 12:55:53;;;;;;;7.38;4.38;;;;;;;;;;5000842;28;20037;-82
2022/11/18 12:58:22;;;;;;;2.53;1.65;;;;;;;;;;4984509;28;20035;-82
2022/11/18 13:00:51;;;;;;;1.95;1.42;;;;;;;;;;4987842;28;20087;-82
2022/11/18 13:03:23;;;;;;;1.17;0.90;;;;;;;;;;5004447;28;20018;-82
2022/11/18 13:05:49;;;;;;;1.98;1.65;;;;;;;;;;5001622;28;20349;-82
2022/11/18 13:08:17;;;;;;;6.30;5.00;;;;;;;;;;4989653;28;20112;-83
2022/11/18 13:10:46;;;;;;;2.92;1.88;;;;;;;;;;4994426;28;20032;-83
2022/11/18 13:13:47;;;;;;;4.80;4.22;;;;;;;;;;4989615;28;20026;-82
2022/11/18 13:19:02;;;;;;;1.58;1.48;;;;;;;;;;5004605;28;20061;-80
2022/11/18 13:24:15;;;;;;;0.50;0.50;;;;;;;;;;4986339;28;20550;-80
2022/11/18 13:26:42;;;;;;;0.70;0.40;;;;;;;;;;4989690;28;20027;-81
2022/11/18 13:29:08;;;;;;;1.20;0.47;;;;;;;;;;5001962;28;20045;-81
2022/11/18 13:31:45;;;;;;;0.60;0.60;;;;;;;;;;4988428;28;20031;-81
2022/11/18 13:34:16;;;;;;;0.50;0.50;;;;;;;;;;4991656;28;20026;-81
2022/11/18 13:36:44;;;;;;;3.73;0.50;;;;;;;;;;4988617;28;20031;-81
2022/11/18 13:39:36;;;;;;;1.55;0.50;;;;;;;;;;4989288;28;20048;-83
2022/11/18 13:42:07;;;;;;;1.42;0.50;;;;;;;;;;4995009;28;20073;-82
2022/11/18 13:44:37;;;;;;;5.80;1.40;;;;;;;;;;4999517;28;20030;-83
2022/11/18 13:47:03;;;;;;;2.20;0.63;;;;;;;;;;5000183;28;20033;-83
2022/11/18 13:49:38;;;;;;;0.68;0.40;;;;;;;;;;5003470;28;20022;-84
2022/11/18 13:52:04;;;;;;;0.65;0.60;;;;;;;;;;4992879;28;20023;-81
2022/11/18 13:54:30;;;;;;;1.10;0.68;;;;;;;;;;4996316;28;20077;-81
2022/11/18 13:56:56;;;;;;;1.52;0.80;;;;;;;;;;5001318;28;20026;-83
2022/11/18 13:59:23;;;;;;;2.42;1.58;;;;;;;;;;4985103;28;20042;-82
2022/11/18 14:01:53;;;;;;;5.07;3.17;;;;;;;;;;4995222;28;20060;-82
2022/11/18 14:04:24;;;;;;;4.60;2.53;;;;;;;;;;4996903;28;20053;-81
2022/11/18 14:06:51;;;;;;;14.38;8.25;;;;;;;;;;4985893;28;20338;-81
2022/11/18 14:09:27;;;;;;;20.80;10.82;;;;;;;;;;4981031;28;20377;-82
2022/11/18 14:12:01;;;;;;;8.52;5.07;;;;;;;;;;5000420;28;20029;-81
2022/11/18 14:14:34;;;;;;;5.78;3.38;;;;;;;;;;4996456;28;20026;-83
2022/11/18 14:17:24;;;;;;;6.13;2.53;;;;;;;;;;4992755;28;20033;-81
2022/11/18 14:19:51;;;;;;;7.60;4.00;;;;;;;;;;4953187;29;20039;-82
2022/11/18 14:22:17;;;;;;;6.88;3.25;;;;;;;;;;4963025;28;20039;-84
2022/11/18 14:24:44;;;;;;;8.82;5.60;;;;;;;;;;4998542;28;20045;-81
2022/11/18 14:27:28;;;;;;;8.18;4.85;;;;;;;;;;4983281;28;20062;-80
2022/11/18 14:29:55;;;;;;;2.83;2.38;;;;;;;;;;4997721;28;20057;-81
2022/11/18 14:32:22;;;;;;;1.90;1.48;;;;;;;;;;5006883;28;20081;-81
2022/11/18 14:34:57;;;;;;;1.60;1.23;;;;;;;;;;4987942;28;20023;-82
2022/11/18 14:37:23;;;;;;;3.50;1.63;;;;;;;;;;4989383;28;20454;-81
2022/11/18 14:39:56;;;;;;;3.78;1.95;;;;;;;;;;4990617;28;20035;-82
2022/11/18 14:42:22;;;;;;;2.47;1.17;;;;;;;;;;4990075;28;20027;-81
2022/11/18 14:44:49;;;;;;;1.52;1.40;;;;;;;;;;4995189;28;20126;-82
2022/11/18 14:47:18;;;;;;;1.38;1.27;;;;;;;;;;4999726;28;20399;-81
2022/11/18 14:49:44;;;;;;;1.73;1.38;;;;;;;;;;5002799;28;20081;-81
2022/11/18 14:52:10;;;;;;;1.77;1.30;;;;;;;;;;5007746;28;20434;-80
2022/11/18 14:54:36;;;;;;;4.10;1.20;;;;;;;;;;5006825;28;20023;-81
2022/11/18 14:57:03;;;;;;;1.17;0.80;;;;;;;;;;5008102;28;20026;-82
2022/11/18 14:59:29;;;;;;;6.93;1.05;;;;;;;;;;4990494;28;20061;-80
2022/11/18 15:01:56;;;;;;;2.83;0.80;;;;;;;;;;4989654;28;20026;-82
2022/11/18 15:04:22;;;;;;;5.70;1.13;;;;;;;;;;4999389;28;20022;-81
2022/11/18 15:06:48;;;;;;;1.08;0.70;;;;;;;;;;4994115;28;20019;-81
2022/11/18 15:09:14;;;;;;;0.68;0.50;;;;;;;;;;4990226;28;20023;-83
2022/11/18 15:11:40;;;;;;;0.90;0.45;;;;;;;;;;4990338;28;20065;-81
2022/11/18 15:14:06;;;;;;;1.25;0.65;;;;;;;;;;4998285;28;20018;-82
2022/11/18 15:16:33;;;;;;;15.10;8.55;;;;;;;;;;5006946;28;20061;-82
2022/11/18 15:19:00;;;;;;;16.67;10.40;;;;;;;;;;4996175;28;20046;-83
2022/11/18 15:21:27;;;;;;;17.63;10.68;;;;;;;;;;5008319;28;20109;-82
2022/11/18 15:23:53;;;;;;;40.35;17.10;;;;;;;;;;5005362;28;20086;-81
2022/11/18 15:26:23;;;;;;;41.83;15.95;;;;;;;;;;4988606;28;20027;-82
2022/11/18 15:28:51;;;;;;;51.35;19.50;;;;;;;;;;4991122;28;20014;-82
2022/11/18 15:31:17;;;;;;;14.85;8.10;;;;;;;;;;4988206;28;20053;-82
2022/11/18 15:33:43;;;;;;;11.80;6.45;;;;;;;;;;4969172;28;20059;-82
2022/11/18 15:36:13;;;;;;;18.30;8.85;;;;;;;;;;5004149;28;20053;-83
2022/11/18 15:38:40;;;;;;;13.68;6.72;;;;;;;;;;4992833;28;20034;-82
2022/11/18 15:41:09;;;;;;;9.77;5.55;;;;;;;;;;5003628;28;20138;-82
2022/11/18 15:43:34;;;;;;;6.40;3.83;;;;;;;;;;5001625;28;20022;-82
2022/11/18 15:46:03;;;;;;;13.27;7.28;;;;;;;;;;4981559;28;20300;-82
2022/11/18 15:48:29;;;;;;;13.93;6.70;;;;;;;;;;4995189;28;20038;-81
2022/11/18 15:50:57;;;;;;;29.83;13.95;;;;;;;;;;4987913;28;20053;-81
2022/11/18 15:53:25;;;;;;;16.55;7.97;;;;;;;;;;4978386;28;20031;-82
2022/11/18 15:55:51;;;;;;;17.35;7.60;;;;;;;;;;4991381;28;20093;-82
2022/11/18 15:58:17;;;;;;;9.25;5.22;;;;;;;;;;5004058;28;20041;-82
2022/11/18 16:00:43;;;;;;;13.68;6.93;;;;;;;;;;4994704;28;20031;-82
2022/11/18 16:03:09;;;;;;;6.72;3.20;;;;;;;;;;4986492;28;20077;-81
2022/11/18 16:05:35;;;;;;;3.25;2.50;;;;;;;;;;4990763;28;20082;-80
2022/11/18 16:08:01;;;;;;;5.90;2.90;;;;;;;;;;4984946;28;20615;-81
2022/11/18 16:13:12;;;;;;;3.10;1.77;;;;;;;;;;5003200;28;20083;-82
2022/11/18 16:15:46;;;;;;;2.30;1.52;;;;;;;;;;5012359;28;20098;-82
2022/11/18 16:18:13;;;;;;;1.20;0.90;;;;;;;;;;5004858;28;20090;-82
2022/11/18 16:20:39;;;;;;;2.05;1.42;;;;;;;;;;4997974;28;20062;-82
2022/11/18 16:23:05;;;;;;;1.75;1.50;;;;;;;;;;4986627;28;20038;-82
2022/11/18 16:25:31;;;;;;;3.80;1.50;;;;;;;;;;4987717;28;20038;-82
2022/11/18 16:27:58;;;;;;;1.65;1.20;;;;;;;;;;4986368;28;20490;-82
2022/11/18 16:33:10;;;;;;;1.58;1.40;;;;;;;;;;4988900;28;20046;-82
2022/11/18 16:35:36;;;;;;;2.28;1.42;;;;;;;;;;5003380;28;20070;-83
2022/11/18 16:38:02;;;;;;;1.92;1.73;;;;;;;;;;5004268;28;20118;-82
2022/11/18 16:40:28;;;;;;;2.95;1.95;;;;;;;;;;4994087;28;20490;-83
2022/11/18 16:42:55;;;;;;;3.55;2.78;;;;;;;;;;4984415;28;20105;-82
2022/11/18 16:45:21;;;;;;;16.25;10.40;;;;;;;;;;4999859;28;20254;-81
2022/11/18 16:47:50;;;;;;;4.95;3.67;;;;;;;;;;4996184;28;20053;-83
2022/11/18 16:50:17;;;;;;;6.72;4.03;;;;;;;;;;4988687;28;20037;-81
2022/11/18 16:52:43;;;;;;;3.47;2.60;;;;;;;;;;4994300;28;20057;-83
2022/11/18 16:55:09;;;;;;;4.60;2.20;;;;;;;;;;5003441;28;20011;-82
2022/11/18 16:57:35;;;;;;;3.08;2.67;;;;;;;;;;5003532;28;20026;-81
2022/11/18 17:00:01;;;;;;;3.13;2.08;;;;;;;;;;4990291;28;20466;-81
2022/11/18 17:02:27;;;;;;;2.88;1.80;;;;;;;;;;4983589;28;20023;-83
2022/11/18 17:04:53;;;;;;;2.90;1.80;;;;;;;;;;4989790;28;20030;-82
2022/11/18 17:07:20;;;;;;;2.53;1.73;;;;;;;;;;4999878;28;20026;-82
2022/11/18 17:09:46;;;;;;;3.50;2.22;;;;;;;;;;4993311;28;20476;-83
2022/11/18 17:12:12;;;;;;;2.03;1.90;;;;;;;;;;5000748;28;20068;-83
2022/11/18 17:14:39;;;;;;;2.40;1.67;;;;;;;;;;4993158;28;20053;-82
2022/11/18 17:17:05;;;;;;;3.45;1.65;;;;;;;;;;4982106;28;20045;-83
2022/11/18 17:19:31;;;;;;;4.95;2.10;;;;;;;;;;4994741;28;20058;-83
2022/11/18 17:21:57;;;;;;;4.70;2.08;;;;;;;;;;4983108;28;20085;-82
2022/11/18 17:24:23;;;;;;;2.55;1.55;;;;;;;;;;4991666;28;20405;-82
2022/11/18 17:26:50;;;;;;;2.13;1.90;;;;;;;;;;4999768;28;20018;-82
2022/11/18 17:29:16;;;;;;;2.80;1.85;;;;;;;;;;4998166;28;20054;-83
2022/11/18 17:31:42;;;;;;;3.53;2.13;;;;;;;;;;4981843;28;20023;-83
2022/11/18 17:34:13;;;;;;;5.22;2.25;;;;;;;;;;5002217;28;20041;-82
2022/11/18 17:36:39;;;;;;;3.85;2.17;;;;;;;;;;5000807;28;20093;-82
2022/11/18 17:39:05;;;;;;;6.10;2.25;;;;;;;;;;4996817;28;20045;-82
2022/11/18 17:44:17;;;;;;;4.82;2.42;;;;;;;;;;4986576;28;20062;-82
2022/11/18 17:46:45;;;;;;;3.40;2.17;;;;;;;;;;4997933;28;20015;-83
2022/11/18 17:49:16;;;;;;;4.35;2.75;;;;;;;;;;4999645;28;20037;-81
2022/11/18 17:51:44;;;;;;;4.53;2.20;;;;;;;;;;4995126;28;20113;-81
2022/11/18 17:54:11;;;;;;;4.63;2.03;;;;;;;;;;4990219;28;20507;-82
2022/11/18 17:56:37;;;;;;;4.40;2.20;;;;;;;;;;4980957;28;20053;-82
2022/11/18 17:59:03;;;;;;;5.07;4.05;;;;;;;;;;4980867;28;20043;-83
2022/11/18 18:01:30;;;;;;;3.83;3.22;;;;;;;;;;4981255;28;20026;-83
2022/11/18 18:03:56;;;;;;;3.90;2.90;;;;;;;;;;4984885;28;20030;-81
2022/11/18 18:06:22;;;;;;;4.10;3.28;;;;;;;;;;4988670;28;20018;-83
2022/11/18 18:08:48;;;;;;;3.25;2.80;;;;;;;;;;4985069;28;20026;-83
2022/11/18 18:11:18;;;;;;;4.00;2.60;;;;;;;;;;4987450;28;20030;-82
2022/11/18 18:16:30;;;;;;;3.00;2.00;;;;;;;;;;4982099;28;20102;-83
2022/11/18 18:18:57;;;;;;;4.53;2.35;;;;;;;;;;4986007;28;20392;-83
2022/11/18 18:21:24;;;;;;;4.78;2.28;;;;;;;;;;4984049;28;20026;-83
2022/11/18 18:23:50;;;;;;;4.20;2.20;;;;;;;;;;5002743;28;20029;-83
2022/11/18 18:26:16;;;;;;;5.53;2.42;;;;;;;;;;4996918;28;20022;-83
2022/11/18 18:28:42;;;;;;;4.50;2.10;;;;;;;;;;4990480;28;20035;-81
2022/11/18 18:31:11;;;;;;;3.72;2.42;;;;;;;;;;4982499;28;20027;-83
2022/11/18 18:33:43;;;;;;;5.22;2.00;;;;;;;;;;4984346;28;20082;-83
2022/11/18 18:36:14;;;;;;;3.63;2.55;;;;;;;;;;4980204;28;20042;-83
2022/11/18 18:38:40;;;;;;;4.68;2.40;;;;;;;;;;4981966;28;20034;-82
2022/11/18 18:41:16;;;;;;;3.58;2.58;;;;;;;;;;4984665;28;20034;-81
2022/11/18 18:43:43;;;;;;;3.72;2.80;;;;;;;;;;4988648;28;20491;-82
2022/11/18 18:46:31;;;;;;;3.67;2.60;;;;;;;;;;5002232;28;20030;-82
2022/11/18 18:49:10;;;;;;;4.53;2.58;;;;;;;;;;4997749;28;20042;-82
2022/11/18 18:51:38;;;;;;;4.45;2.67;;;;;;;;;;4992065;28;20026;-83
2022/11/18 18:54:05;;;;;;;4.72;3.28;;;;;;;;;;4993134;28;20022;-83
2022/11/18 18:56:32;;;;;;;6.97;3.22;;;;;;;;;;4992596;28;20026;-82
2022/11/18 18:58:58;;;;;;;5.63;2.75;;;;;;;;;;4985338;28;20026;-83
2022/11/18 19:01:25;;;;;;;3.83;2.78;;;;;;;;;;4981536;28;20011;-82
2022/11/18 19:03:59;;;;;;;4.50;2.70;;;;;;;;;;4986566;28;20022;-82
2022/11/18 19:06:29;;;;;;;3.70;2.35;;;;;;;;;;4982742;28;20027;-83
2022/11/18 19:08:55;;;;;;;5.43;2.60;;;;;;;;;;4980689;28;20411;-82
2022/11/18 19:14:08;;;;;;;3.08;2.20;;;;;;;;;;4982518;28;20163;-82
2022/11/18 19:16:35;;;;;;;3.95;2.17;;;;;;;;;;4980156;28;20031;-82
2022/11/18 19:19:02;;;;;;;5.78;2.58;;;;;;;;;;4962816;28;20052;-82
2022/11/18 19:21:28;;;;;;;2.97;2.20;;;;;;;;;;4963768;28;20030;-83
2022/11/18 19:23:54;;;;;;;4.28;2.95;;;;;;;;;;4967256;28;20026;-82
2022/11/18 19:26:21;;;;;;;3.83;2.75;;;;;;;;;;4981509;28;20022;-82
2022/11/18 19:28:47;;;;;;;5.05;2.75;;;;;;;;;;4980037;28;20077;-82
2022/11/18 19:31:14;;;;;;;5.35;3.28;;;;;;;;;;4978403;28;20035;-83
2022/11/18 19:33:40;;;;;;;6.63;4.13;;;;;;;;;;4989006;28;20101;-82
2022/11/18 19:36:07;;;;;;;4.63;4.20;;;;;;;;;;4983996;28;20049;-82
2022/11/18 19:38:34;;;;;;;5.80;5.20;;;;;;;;;;4984817;28;20039;-81
2022/11/18 19:41:01;;;;;;;5.13;3.80;;;;;;;;;;4983895;28;20035;-83
2022/11/18 19:43:27;;;;;;;3.58;3.20;;;;;;;;;;4981894;28;20134;-82
2022/11/18 19:45:53;;;;;;;5.03;2.83;;;;;;;;;;4996942;28;20030;-82
2022/11/18 19:48:19;;;;;;;3.63;2.38;;;;;;;;;;5003191;28;20151;-83
2022/11/18 19:50:45;;;;;;;4.68;2.30;;;;;;;;;;4989213;28;20038;-82
2022/11/18 19:56:11;;;;;;;5.07;2.97;;;;;;;;;;4968627;28;20030;-82
2022/11/18 19:58:38;;;;;;;3.78;2.60;;;;;;;;;;5003255;28;20065;-81
2022/11/18 20:01:08;;;;;;;5.57;2.75;;;;;;;;;;4984622;28;20034;-82
2022/11/18 20:03:34;;;;;;;4.00;2.63;;;;;;;;;;4996426;28;20086;-82
2022/11/18 20:06:04;;;;;;;5.22;2.80;;;;;;;;;;5002170;28;20038;-82
2022/11/18 20:08:31;;;;;;;3.70;2.50;;;;;;;;;;5004808;28;20033;-83
2022/11/18 20:10:59;;;;;;;3.53;2.47;;;;;;;;;;4996104;28;20034;-83
2022/11/18 20:13:25;;;;;;;2.55;2.03;;;;;;;;;;4988454;28;20023;-85
2022/11/18 20:15:51;;;;;;;5.35;2.65;;;;;;;;;;4995838;28;20087;-83
2022/11/18 20:18:21;;;;;;;2.88;2.03;;;;;;;;;;4987070;28;20018;-83